sensor_id;sensor_type;location;lat;lon;timestamp;pressure;altitude;pressure_sealevel;temperature;humidity
75585;BME280;64162;53.508;10.476;2024-02-28T00:00:05;101553.41;;;8.89;56.84
75585;BME280;64162;53.508;10.476;2024-02-28T00:02:32;101540.66;;;9.78;53.51
75585;BME280;64162;53.508;10.476;2024-02-28T00:04:59;101551.66;;;9.10;55.27
75585;BME280;64162;53.508;10.476;2024-02-28T00:07:26;101550.50;;;8.82;56.52
75585;BME280;64162;53.508;10.476;2024-02-28T00:09:52;101535.78;;;9.15;55.98
75585;BME280;64162;53.508;10.476;2024-02-28T00:12:23;101554.38;;;9.39;55.38
75585;BME280;64162;53.508;10.476;2024-02-28T00:14:53;101549.63;;;9.14;55.98
75585;BME280;64162;53.508;10.476;2024-02-28T00:17:20;101544.78;;;8.04;58.35
75585;BME280;64162;53.508;10.476;2024-02-28T00:19:46;101547.53;;;8.87;56.45
75585;BME280;64162;53.508;10.476;2024-02-28T00:22:13;101541.25;;;8.80;56.21
75585;BME280;64162;53.508;10.476;2024-02-28T00:24:40;101551.72;;;9.50;54.63
75585;BME280;64162;53.508;10.476;2024-02-28T00:27:06;101540.66;;;9.18;55.01
75585;BME280;64162;53.508;10.476;2024-02-28T00:29:33;101552.28;;;9.02;55.59
75585;BME280;64162;53.508;10.476;2024-02-28T00:31:59;101540.63;;;8.35;56.34
75585;BME280;64162;53.508;10.476;2024-02-28T00:34:26;101543.19;;;9.29;55.36
75585;BME280;64162;53.508;10.476;2024-02-28T00:36:52;101536.69;;;8.51;56.74
75585;BME280;64162;53.508;10.476;2024-02-28T00:39:20;101537.94;;;9.40;55.09
75585;BME280;64162;53.508;10.476;2024-02-28T00:41:47;101540.03;;;8.63;57.20
75585;BME280;64162;53.508;10.476;2024-02-28T00:44:13;101540.31;;;9.62;54.49
75585;BME280;64162;53.508;10.476;2024-02-28T00:46:40;101553.28;;;8.90;55.06
75585;BME280;64162;53.508;10.476;2024-02-28T00:49:06;101533.94;;;9.05;55.85
75585;BME280;64162;53.508;10.476;2024-02-28T00:51:33;101534.19;;;9.23;54.36
75585;BME280;64162;53.508;10.476;2024-02-28T00:54:00;101534.06;;;8.83;56.56
75585;BME280;64162;53.508;10.476;2024-02-28T00:56:26;101527.25;;;8.82;56.89
75585;BME280;64162;53.508;10.476;2024-02-28T00:58:53;101532.81;;;8.98;55.44
75585;BME280;64162;53.508;10.476;2024-02-28T01:01:20;101536.59;;;8.42;57.22
75585;BME280;64162;53.508;10.476;2024-02-28T01:03:47;101535.13;;;9.01;55.77
75585;BME280;64162;53.508;10.476;2024-02-28T01:06:13;101534.19;;;8.82;55.42
75585;BME280;64162;53.508;10.476;2024-02-28T01:08:41;101522.38;;;9.00;54.48
75585;BME280;64162;53.508;10.476;2024-02-28T01:11:07;101518.53;;;8.42;56.20
75585;BME280;64162;53.508;10.476;2024-02-28T01:13:34;101511.06;;;8.80;56.37
75585;BME280;64162;53.508;10.476;2024-02-28T01:16:01;101522.69;;;9.77;53.48
75585;BME280;64162;53.508;10.476;2024-02-28T01:18:27;101511.91;;;9.32;53.89
75585;BME280;64162;53.508;10.476;2024-02-28T01:20:57;101523.41;;;9.48;54.18
75585;BME280;64162;53.508;10.476;2024-02-28T01:23:23;101528.06;;;9.24;54.97
75585;BME280;64162;53.508;10.476;2024-02-28T01:25:50;101515.88;;;8.64;55.08
75585;BME280;64162;53.508;10.476;2024-02-28T01:28:17;101520.59;;;9.31;53.92
75585;BME280;64162;53.508;10.476;2024-02-28T01:30:43;101512.22;;;8.67;55.81
75585;BME280;64162;53.508;10.476;2024-02-28T01:33:10;101510.94;;;9.02;55.21
75585;BME280;64162;53.508;10.476;2024-02-28T01:35:39;101519.69;;;9.11;55.45
75585;BME280;64162;53.508;10.476;2024-02-28T01:38:05;101517.75;;;9.03;53.98
75585;BME280;64162;53.508;10.476;2024-02-28T01:40:32;101515.44;;;8.80;54.67
75585;BME280;64162;53.508;10.476;2024-02-28T01:43:08;101494.63;;;8.60;55.28
75585;BME280;64162;53.508;10.476;2024-02-28T01:45:35;101505.19;;;8.37;55.63
75585;BME280;64162;53.508;10.476;2024-02-28T01:48:02;101507.66;;;8.27;56.19
75585;BME280;64162;53.508;10.476;2024-02-28T01:50:29;101501.13;;;8.12;56.69
75585;BME280;64162;53.508;10.476;2024-02-28T01:52:55;101512.88;;;8.48;55.09
75585;BME280;64162;53.508;10.476;2024-02-28T01:55:22;101508.91;;;8.44;55.25
75585;BME280;64162;53.508;10.476;2024-02-28T01:57:50;101508.03;;;9.17;53.71
75585;BME280;64162;53.508;10.476;2024-02-28T02:00:18;101502.03;;;8.22;55.72
75585;BME280;64162;53.508;10.476;2024-02-28T02:02:45;101494.25;;;8.01;55.72
75585;BME280;64162;53.508;10.476;2024-02-28T02:05:12;101497.41;;;8.48;56.13
75585;BME280;64162;53.508;10.476;2024-02-28T02:07:39;101504.47;;;7.81;57.36
75585;BME280;64162;53.508;10.476;2024-02-28T02:10:06;101520.78;;;8.67;54.53
75585;BME280;64162;53.508;10.476;2024-02-28T02:12:35;101511.16;;;8.69;54.45
75585;BME280;64162;53.508;10.476;2024-02-28T02:15:01;101500.22;;;8.02;56.93
75585;BME280;64162;53.508;10.476;2024-02-28T02:17:28;101520.94;;;8.34;56.05
75585;BME280;64162;53.508;10.476;2024-02-28T02:19:55;101511.88;;;8.39;56.21
75585;BME280;64162;53.508;10.476;2024-02-28T02:22:21;101502.69;;;8.46;56.37
75585;BME280;64162;53.508;10.476;2024-02-28T02:24:49;101507.16;;;7.90;57.60
75585;BME280;64162;53.508;10.476;2024-02-28T02:27:16;101508.91;;;8.44;56.46
75585;BME280;64162;53.508;10.476;2024-02-28T02:29:42;101488.97;;;8.03;57.10
75585;BME280;64162;53.508;10.476;2024-02-28T02:32:09;101503.09;;;8.31;55.58
75585;BME280;64162;53.508;10.476;2024-02-28T02:34:35;101493.97;;;8.15;56.34
75585;BME280;64162;53.508;10.476;2024-02-28T02:37:02;101498.00;;;8.08;56.93
75585;BME280;64162;53.508;10.476;2024-02-28T02:39:28;101505.72;;;8.08;57.10
75585;BME280;64162;53.508;10.476;2024-02-28T02:41:55;101512.03;;;7.39;58.59
75585;BME280;64162;53.508;10.476;2024-02-28T02:44:21;101504.56;;;7.90;57.23
75585;BME280;64162;53.508;10.476;2024-02-28T02:46:48;101508.78;;;8.45;55.30
75585;BME280;64162;53.508;10.476;2024-02-28T02:49:15;101513.53;;;7.64;56.96
75585;BME280;64162;53.508;10.476;2024-02-28T02:51:41;101521.69;;;7.91;56.47
75585;BME280;64162;53.508;10.476;2024-02-28T02:54:09;101532.97;;;7.34;58.27
75585;BME280;64162;53.508;10.476;2024-02-28T02:56:36;101542.59;;;7.66;57.47
75585;BME280;64162;53.508;10.476;2024-02-28T02:59:03;101522.13;;;8.07;56.97
75585;BME280;64162;53.508;10.476;2024-02-28T03:01:30;101525.66;;;8.06;56.85
75585;BME280;64162;53.508;10.476;2024-02-28T03:03:56;101527.81;;;7.79;57.78
75585;BME280;64162;53.508;10.476;2024-02-28T03:06:23;101529.22;;;7.83;58.16
75585;BME280;64162;53.508;10.476;2024-02-28T03:08:50;101521.25;;;7.75;57.50
75585;BME280;64162;53.508;10.476;2024-02-28T03:11:17;101532.25;;;7.88;56.77
75585;BME280;64162;53.508;10.476;2024-02-28T03:13:43;101545.06;;;8.22;55.36
75585;BME280;64162;53.508;10.476;2024-02-28T03:16:10;101548.56;;;7.89;56.59
75585;BME280;64162;53.508;10.476;2024-02-28T03:18:37;101539.41;;;7.85;57.15
75585;BME280;64162;53.508;10.476;2024-02-28T03:21:04;101542.84;;;8.39;55.50
75585;BME280;64162;53.508;10.476;2024-02-28T03:23:31;101547.19;;;8.28;55.52
75585;BME280;64162;53.508;10.476;2024-02-28T03:25:58;101547.19;;;8.16;56.29
75585;BME280;64162;53.508;10.476;2024-02-28T03:28:24;101538.97;;;8.23;55.19
75585;BME280;64162;53.508;10.476;2024-02-28T03:30:51;101553.56;;;7.90;56.81
75585;BME280;64162;53.508;10.476;2024-02-28T03:33:17;101542.00;;;8.50;55.29
75585;BME280;64162;53.508;10.476;2024-02-28T03:35:44;101553.09;;;8.07;56.13
75585;BME280;64162;53.508;10.476;2024-02-28T03:38:11;101555.81;;;7.61;57.49
75585;BME280;64162;53.508;10.476;2024-02-28T03:40:38;101562.59;;;8.07;56.56
75585;BME280;64162;53.508;10.476;2024-02-28T03:43:04;101553.47;;;7.81;58.16
75585;BME280;64162;53.508;10.476;2024-02-28T03:45:36;101568.59;;;7.63;57.82
75585;BME280;64162;53.508;10.476;2024-02-28T03:48:04;101554.34;;;7.02;58.99
75585;BME280;64162;53.508;10.476;2024-02-28T03:50:30;101550.56;;;7.74;56.87
75585;BME280;64162;53.508;10.476;2024-02-28T03:52:57;101560.53;;;6.99;57.78
75585;BME280;64162;53.508;10.476;2024-02-28T03:55:24;101570.72;;;7.58;58.40
75585;BME280;64162;53.508;10.476;2024-02-28T03:57:50;101561.81;;;7.84;56.81
75585;BME280;64162;53.508;10.476;2024-02-28T04:00:18;101561.31;;;7.46;57.57
75585;BME280;64162;53.508;10.476;2024-02-28T04:02:45;101553.72;;;7.33;57.21
75585;BME280;64162;53.508;10.476;2024-02-28T04:05:12;101544.72;;;8.15;56.20
75585;BME280;64162;53.508;10.476;2024-02-28T04:07:38;101554.53;;;7.89;56.60
75585;BME280;64162;53.508;10.476;2024-02-28T04:10:05;101553.53;;;8.24;55.57
75585;BME280;64162;53.508;10.476;2024-02-28T04:12:32;101554.63;;;7.99;56.77
75585;BME280;64162;53.508;10.476;2024-02-28T04:14:59;101552.88;;;8.53;55.13
75585;BME280;64162;53.508;10.476;2024-02-28T04:17:26;101551.75;;;8.35;54.49
75585;BME280;64162;53.508;10.476;2024-02-28T04:19:52;101539.75;;;7.80;56.60
75585;BME280;64162;53.508;10.476;2024-02-28T04:22:19;101554.66;;;7.76;56.22
75585;BME280;64162;53.508;10.476;2024-02-28T04:24:45;101558.59;;;8.14;55.36
75585;BME280;64162;53.508;10.476;2024-02-28T04:27:12;101555.38;;;7.67;57.03
75585;BME280;64162;53.508;10.476;2024-02-28T04:29:38;101549.31;;;8.11;55.65
75585;BME280;64162;53.508;10.476;2024-02-28T04:32:05;101546.91;;;7.65;56.78
75585;BME280;64162;53.508;10.476;2024-02-28T04:34:32;101549.63;;;8.72;53.53
75585;BME280;64162;53.508;10.476;2024-02-28T04:36:58;101548.41;;;8.76;53.97
75585;BME280;64162;53.508;10.476;2024-02-28T04:39:25;101547.53;;;8.23;54.93
75585;BME280;64162;53.508;10.476;2024-02-28T04:41:51;101546.31;;;8.49;54.70
75585;BME280;64162;53.508;10.476;2024-02-28T04:44:18;101550.03;;;8.13;55.14
75585;BME280;64162;53.508;10.476;2024-02-28T04:46:45;101544.63;;;8.05;56.04
75585;BME280;64162;53.508;10.476;2024-02-28T04:49:11;101540.78;;;8.54;54.22
75585;BME280;64162;53.508;10.476;2024-02-28T04:51:38;101538.28;;;8.32;55.64
75585;BME280;64162;53.508;10.476;2024-02-28T04:54:04;101542.94;;;7.84;56.78
75585;BME280;64162;53.508;10.476;2024-02-28T04:56:31;101543.25;;;8.01;55.25
75585;BME280;64162;53.508;10.476;2024-02-28T04:58:57;101542.50;;;8.33;55.38
75585;BME280;64162;53.508;10.476;2024-02-28T05:01:24;101538.09;;;8.01;55.98
75585;BME280;64162;53.508;10.476;2024-02-28T05:03:50;101554.09;;;8.27;55.65
75585;BME280;64162;53.508;10.476;2024-02-28T05:06:17;101555.81;;;7.61;56.79
75585;BME280;64162;53.508;10.476;2024-02-28T05:08:43;101557.78;;;8.02;56.44
75585;BME280;64162;53.508;10.476;2024-02-28T05:11:10;101546.03;;;8.32;55.83
75585;BME280;64162;53.508;10.476;2024-02-28T05:13:36;101561.34;;;7.68;56.92
75585;BME280;64162;53.508;10.476;2024-02-28T05:16:03;101569.75;;;8.14;55.95
75585;BME280;64162;53.508;10.476;2024-02-28T05:18:30;101559.63;;;8.11;55.93
75585;BME280;64162;53.508;10.476;2024-02-28T05:20:57;101551.44;;;8.17;56.33
75585;BME280;64162;53.508;10.476;2024-02-28T05:23:23;101560.00;;;7.96;56.22
75585;BME280;64162;53.508;10.476;2024-02-28T05:25:50;101551.25;;;7.87;56.78
75585;BME280;64162;53.508;10.476;2024-02-28T05:28:16;101561.94;;;8.26;55.39
75585;BME280;64162;53.508;10.476;2024-02-28T05:30:43;101563.97;;;8.33;55.85
75585;BME280;64162;53.508;10.476;2024-02-28T05:33:11;101553.72;;;8.43;55.42
75585;BME280;64162;53.508;10.476;2024-02-28T05:35:38;101556.97;;;8.56;55.21
75585;BME280;64162;53.508;10.476;2024-02-28T05:38:04;101566.03;;;7.74;56.58
75585;BME280;64162;53.508;10.476;2024-02-28T05:40:31;101562.50;;;7.75;57.17
75585;BME280;64162;53.508;10.476;2024-02-28T05:42:57;101577.00;;;8.09;56.62
75585;BME280;64162;53.508;10.476;2024-02-28T05:45:24;101561.13;;;8.25;55.93
75585;BME280;64162;53.508;10.476;2024-02-28T05:47:50;101574.66;;;8.17;56.19
75585;BME280;64162;53.508;10.476;2024-02-28T05:50:17;101559.47;;;8.46;55.67
75585;BME280;64162;53.508;10.476;2024-02-28T05:52:43;101575.91;;;8.66;55.03
75585;BME280;64162;53.508;10.476;2024-02-28T05:55:10;101576.28;;;8.18;56.09
75585;BME280;64162;53.508;10.476;2024-02-28T05:57:37;101573.09;;;8.26;56.49
75585;BME280;64162;53.508;10.476;2024-02-28T06:00:04;101579.06;;;8.27;56.57
75585;BME280;64162;53.508;10.476;2024-02-28T06:02:39;101581.00;;;7.80;57.53
75585;BME280;64162;53.508;10.476;2024-02-28T06:05:05;101582.81;;;8.45;55.97
75585;BME280;64162;53.508;10.476;2024-02-28T06:07:32;101593.53;;;8.07;57.01
75585;BME280;64162;53.508;10.476;2024-02-28T06:09:59;101587.88;;;8.35;56.08
75585;BME280;64162;53.508;10.476;2024-02-28T06:12:26;101579.00;;;7.95;57.37
75585;BME280;64162;53.508;10.476;2024-02-28T06:14:52;101588.94;;;8.22;56.35
75585;BME280;64162;53.508;10.476;2024-02-28T06:17:20;101584.22;;;8.27;55.92
75585;BME280;64162;53.508;10.476;2024-02-28T06:19:47;101591.44;;;7.90;56.77
75585;BME280;64162;53.508;10.476;2024-02-28T06:22:13;101598.59;;;7.97;56.70
75585;BME280;64162;53.508;10.476;2024-02-28T06:24:40;101591.09;;;7.72;57.41
75585;BME280;64162;53.508;10.476;2024-02-28T06:27:07;101581.94;;;8.01;56.82
75585;BME280;64162;53.508;10.476;2024-02-28T06:29:42;101591.78;;;8.07;55.99
75585;BME280;64162;53.508;10.476;2024-02-28T06:32:08;101600.44;;;8.29;55.67
75585;BME280;64162;53.508;10.476;2024-02-28T06:34:35;101600.44;;;7.95;56.28
75585;BME280;64162;53.508;10.476;2024-02-28T06:37:01;101596.00;;;7.97;57.19
75585;BME280;64162;53.508;10.476;2024-02-28T06:39:28;101606.41;;;8.18;56.48
75585;BME280;64162;53.508;10.476;2024-02-28T06:41:54;101608.19;;;8.06;56.47
75585;BME280;64162;53.508;10.476;2024-02-28T06:44:21;101616.81;;;7.27;58.07
75585;BME280;64162;53.508;10.476;2024-02-28T06:46:48;101625.16;;;8.20;57.16
75585;BME280;64162;53.508;10.476;2024-02-28T06:49:14;101629.28;;;8.23;55.83
75585;BME280;64162;53.508;10.476;2024-02-28T06:51:43;101621.81;;;7.64;57.48
75585;BME280;64162;53.508;10.476;2024-02-28T06:54:10;101625.28;;;8.41;55.68
75585;BME280;64162;53.508;10.476;2024-02-28T06:56:37;101627.03;;;8.40;56.08
75585;BME280;64162;53.508;10.476;2024-02-28T06:59:03;101630.94;;;8.24;56.72
75585;BME280;64162;53.508;10.476;2024-02-28T07:01:30;101635.88;;;7.93;56.29
75585;BME280;64162;53.508;10.476;2024-02-28T07:03:57;101631.28;;;7.63;57.66
75585;BME280;64162;53.508;10.476;2024-02-28T07:06:24;101632.41;;;8.59;55.94
75585;BME280;64162;53.508;10.476;2024-02-28T07:08:51;101629.78;;;7.83;57.21
75585;BME280;64162;53.508;10.476;2024-02-28T07:11:17;101621.19;;;8.49;55.38
75585;BME280;64162;53.508;10.476;2024-02-28T07:13:44;101641.47;;;8.54;55.24
75585;BME280;64162;53.508;10.476;2024-02-28T07:16:10;101646.41;;;8.24;56.33
75585;BME280;64162;53.508;10.476;2024-02-28T07:18:37;101648.84;;;8.47;56.47
75585;BME280;64162;53.508;10.476;2024-02-28T07:21:04;101653.19;;;8.58;55.20
75585;BME280;64162;53.508;10.476;2024-02-28T07:23:33;101644.53;;;8.03;56.64
75585;BME280;64162;53.508;10.476;2024-02-28T07:25:59;101648.75;;;8.38;55.81
75585;BME280;64162;53.508;10.476;2024-02-28T07:28:28;101644.28;;;8.06;57.00
75585;BME280;64162;53.508;10.476;2024-02-28T07:30:55;101649.81;;;7.91;57.84
75585;BME280;64162;53.508;10.476;2024-02-28T07:33:21;101668.22;;;8.08;57.60
75585;BME280;64162;53.508;10.476;2024-02-28T07:35:51;101652.34;;;8.69;55.85
75585;BME280;64162;53.508;10.476;2024-02-28T07:38:18;101659.00;;;8.71;56.38
75585;BME280;64162;53.508;10.476;2024-02-28T07:40:48;101647.25;;;8.78;55.63
75585;BME280;64162;53.508;10.476;2024-02-28T07:43:15;101649.75;;;9.21;54.35
75585;BME280;64162;53.508;10.476;2024-02-28T07:45:41;101655.03;;;8.67;55.45
75585;BME280;64162;53.508;10.476;2024-02-28T07:48:08;101650.78;;;8.77;55.63
75585;BME280;64162;53.508;10.476;2024-02-28T07:50:34;101662.72;;;8.35;56.64
75585;BME280;64162;53.508;10.476;2024-02-28T07:53:01;101658.81;;;8.52;55.53
75585;BME280;64162;53.508;10.476;2024-02-28T07:55:27;101654.53;;;8.73;54.71
75585;BME280;64162;53.508;10.476;2024-02-28T07:57:54;101633.44;;;9.21;54.10
75585;BME280;64162;53.508;10.476;2024-02-28T08:00:21;101639.53;;;8.67;55.69
75585;BME280;64162;53.508;10.476;2024-02-28T08:02:48;101641.69;;;8.51;56.01
75585;BME280;64162;53.508;10.476;2024-02-28T08:05:16;101642.84;;;8.58;55.55
75585;BME280;64162;53.508;10.476;2024-02-28T08:07:42;101637.97;;;8.44;56.28
75585;BME280;64162;53.508;10.476;2024-02-28T08:10:09;101647.59;;;8.85;55.62
75585;BME280;64162;53.508;10.476;2024-02-28T08:12:36;101642.97;;;8.56;55.28
75585;BME280;64162;53.508;10.476;2024-02-28T08:15:03;101661.28;;;8.20;56.45
75585;BME280;64162;53.508;10.476;2024-02-28T08:17:30;101655.44;;;8.83;55.39
75585;BME280;64162;53.508;10.476;2024-02-28T08:19:57;101651.91;;;9.37;53.57
75585;BME280;64162;53.508;10.476;2024-02-28T08:22:24;101651.59;;;9.10;55.20
75585;BME280;64162;53.508;10.476;2024-02-28T08:24:52;101643.84;;;9.10;55.18
75585;BME280;64162;53.508;10.476;2024-02-28T08:27:19;101662.34;;;7.95;57.46
75585;BME280;64162;53.508;10.476;2024-02-28T08:29:47;101667.84;;;8.46;56.37
75585;BME280;64162;53.508;10.476;2024-02-28T08:32:13;101673.72;;;8.59;55.79
75585;BME280;64162;53.508;10.476;2024-02-28T08:34:43;101663.41;;;8.80;54.76
75585;BME280;64162;53.508;10.476;2024-02-28T08:37:11;101665.28;;;8.24;56.85
75585;BME280;64162;53.508;10.476;2024-02-28T08:39:37;101666.91;;;8.90;54.93
75585;BME280;64162;53.508;10.476;2024-02-28T08:42:04;101660.91;;;9.22;54.65
75585;BME280;64162;53.508;10.476;2024-02-28T08:44:31;101661.28;;;8.85;55.35
75585;BME280;64162;53.508;10.476;2024-02-28T08:46:57;101666.88;;;9.01;55.63
75585;BME280;64162;53.508;10.476;2024-02-28T08:49:24;101663.84;;;9.49;54.38
75585;BME280;64162;53.508;10.476;2024-02-28T08:51:50;101670.41;;;9.83;53.02
75585;BME280;64162;53.508;10.476;2024-02-28T08:54:17;101669.56;;;9.32;54.19
75585;BME280;64162;53.508;10.476;2024-02-28T08:56:44;101666.53;;;9.27;55.22
75585;BME280;64162;53.508;10.476;2024-02-28T08:59:12;101666.47;;;8.85;55.71
75585;BME280;64162;53.508;10.476;2024-02-28T09:01:38;101672.63;;;9.67;54.14
75585;BME280;64162;53.508;10.476;2024-02-28T09:04:07;101677.69;;;9.27;54.64
75585;BME280;64162;53.508;10.476;2024-02-28T09:06:34;101669.03;;;9.79;53.79
75585;BME280;64162;53.508;10.476;2024-02-28T09:09:01;101669.81;;;9.50;54.74
75585;BME280;64162;53.508;10.476;2024-02-28T09:11:27;101673.91;;;9.52;54.54
75585;BME280;64162;53.508;10.476;2024-02-28T09:13:54;101662.13;;;9.18;54.53
75585;BME280;64162;53.508;10.476;2024-02-28T09:16:21;101673.13;;;8.56;56.68
75585;BME280;64162;53.508;10.476;2024-02-28T09:18:48;101668.75;;;8.68;57.28
75585;BME280;64162;53.508;10.476;2024-02-28T09:21:14;101662.16;;;9.89;55.18
75585;BME280;64162;53.508;10.476;2024-02-28T09:23:41;101681.91;;;9.28;56.35
75585;BME280;64162;53.508;10.476;2024-02-28T09:26:08;101685.25;;;8.87;56.44
75585;BME280;64162;53.508;10.476;2024-02-28T09:28:35;101674.94;;;9.91;54.44
75585;BME280;64162;53.508;10.476;2024-02-28T09:31:01;101686.34;;;9.58;55.44
75585;BME280;64162;53.508;10.476;2024-02-28T09:33:29;101683.75;;;9.37;55.51
75585;BME280;64162;53.508;10.476;2024-02-28T09:35:56;101691.03;;;9.12;56.26
75585;BME280;64162;53.508;10.476;2024-02-28T09:38:22;101685.91;;;9.53;54.52
75585;BME280;64162;53.508;10.476;2024-02-28T09:40:49;101683.91;;;9.87;55.16
75585;BME280;64162;53.508;10.476;2024-02-28T09:43:28;101684.81;;;10.07;54.34
75585;BME280;64162;53.508;10.476;2024-02-28T09:46:04;101691.34;;;9.50;55.41
75585;BME280;64162;53.508;10.476;2024-02-28T09:48:32;101695.91;;;9.26;56.43
75585;BME280;64162;53.508;10.476;2024-02-28T09:51:00;101706.19;;;9.78;55.91
75585;BME280;64162;53.508;10.476;2024-02-28T09:53:26;101687.56;;;10.36;54.79
75585;BME280;64162;53.508;10.476;2024-02-28T09:55:53;101691.25;;;9.61;55.43
75585;BME280;64162;53.508;10.476;2024-02-28T09:58:19;101691.66;;;10.48;54.61
75585;BME280;64162;53.508;10.476;2024-02-28T10:00:48;101687.53;;;9.75;55.56
75585;BME280;64162;53.508;10.476;2024-02-28T10:03:18;101694.91;;;10.30;53.85
75585;BME280;64162;53.508;10.476;2024-02-28T10:05:49;101692.06;;;10.13;54.74
75585;BME280;64162;53.508;10.476;2024-02-28T10:08:16;101683.44;;;10.33;54.38
75585;BME280;64162;53.508;10.476;2024-02-28T10:10:48;101674.72;;;9.73;55.80
75585;BME280;64162;53.508;10.476;2024-02-28T10:13:15;101687.03;;;10.51;54.66
75585;BME280;64162;53.508;10.476;2024-02-28T10:15:42;101688.09;;;9.78;56.04
75585;BME280;64162;53.508;10.476;2024-02-28T10:18:09;101695.53;;;10.23;55.30
75585;BME280;64162;53.508;10.476;2024-02-28T10:20:36;101699.53;;;11.15;52.87
75585;BME280;64162;53.508;10.476;2024-02-28T10:23:05;101699.34;;;10.19;54.88
75585;BME280;64162;53.508;10.476;2024-02-28T10:25:32;101693.75;;;10.63;53.84
75585;BME280;64162;53.508;10.476;2024-02-28T10:28:02;101694.97;;;10.59;53.75
75585;BME280;64162;53.508;10.476;2024-02-28T10:30:29;101691.28;;;10.71;53.85
75585;BME280;64162;53.508;10.476;2024-02-28T10:32:55;101692.41;;;10.69;53.78
75585;BME280;64162;53.508;10.476;2024-02-28T10:35:22;101697.28;;;10.62;54.16
75585;BME280;64162;53.508;10.476;2024-02-28T10:37:52;101704.53;;;10.68;54.32
75585;BME280;64162;53.508;10.476;2024-02-28T10:40:22;101709.75;;;10.97;52.68
75585;BME280;64162;53.508;10.476;2024-02-28T10:42:49;101697.34;;;11.30;53.18
75585;BME280;64162;53.508;10.476;2024-02-28T10:45:17;101697.44;;;11.47;52.48
75585;BME280;64162;53.508;10.476;2024-02-28T10:47:45;101704.28;;;11.48;52.32
75585;BME280;64162;53.508;10.476;2024-02-28T10:50:13;101713.72;;;11.01;52.83
75585;BME280;64162;53.508;10.476;2024-02-28T10:52:44;101706.31;;;10.87;53.66
75585;BME280;64162;53.508;10.476;2024-02-28T10:55:13;101700.97;;;11.85;50.97
75585;BME280;64162;53.508;10.476;2024-02-28T10:57:40;101702.78;;;10.98;52.45
75585;BME280;64162;53.508;10.476;2024-02-28T11:00:08;101700.59;;;11.12;53.23
75585;BME280;64162;53.508;10.476;2024-02-28T11:02:36;101710.03;;;11.23;53.54
75585;BME280;64162;53.508;10.476;2024-02-28T11:05:03;101711.66;;;11.24;52.99
75585;BME280;64162;53.508;10.476;2024-02-28T11:07:30;101716.16;;;11.03;53.06
75585;BME280;64162;53.508;10.476;2024-02-28T11:09:57;101713.97;;;11.17;52.79
75585;BME280;64162;53.508;10.476;2024-02-28T11:12:27;101714.25;;;11.05;53.28
75585;BME280;64162;53.508;10.476;2024-02-28T11:14:58;101707.41;;;11.33;52.68
75585;BME280;64162;53.508;10.476;2024-02-28T11:17:26;101707.56;;;10.93;53.67
75585;BME280;64162;53.508;10.476;2024-02-28T11:19:54;101703.19;;;11.32;52.15
75585;BME280;64162;53.508;10.476;2024-02-28T11:22:21;101707.66;;;11.78;52.17
75585;BME280;64162;53.508;10.476;2024-02-28T11:24:48;101701.72;;;11.00;52.68
75585;BME280;64162;53.508;10.476;2024-02-28T11:27:17;101695.13;;;11.54;52.78
75585;BME280;64162;53.508;10.476;2024-02-28T11:29:44;101700.28;;;11.63;52.18
75585;BME280;64162;53.508;10.476;2024-02-28T11:32:13;101709.59;;;11.56;52.73
75585;BME280;64162;53.508;10.476;2024-02-28T11:34:41;101706.59;;;11.51;51.96
75585;BME280;64162;53.508;10.476;2024-02-28T11:37:11;101707.81;;;11.47;51.96
75585;BME280;64162;53.508;10.476;2024-02-28T11:39:38;101712.59;;;11.42;53.03
75585;BME280;64162;53.508;10.476;2024-02-28T11:42:17;101701.56;;;11.50;52.65
75585;BME280;64162;53.508;10.476;2024-02-28T11:44:52;101714.50;;;11.59;52.38
75585;BME280;64162;53.508;10.476;2024-02-28T11:47:19;101699.63;;;12.63;50.60
75585;BME280;64162;53.508;10.476;2024-02-28T11:49:46;101707.16;;;12.38;51.47
75585;BME280;64162;53.508;10.476;2024-02-28T11:52:14;101695.66;;;12.14;51.57
75585;BME280;64162;53.508;10.476;2024-02-28T11:54:40;101698.13;;;12.15;51.17
75585;BME280;64162;53.508;10.476;2024-02-28T11:57:07;101711.97;;;12.61;50.41
75585;BME280;64162;53.508;10.476;2024-02-28T11:59:34;101702.47;;;12.52;49.52
75585;BME280;64162;53.508;10.476;2024-02-28T12:02:11;101697.03;;;12.63;50.50
75585;BME280;64162;53.508;10.476;2024-02-28T12:04:39;101700.00;;;12.50;50.56
75585;BME280;64162;53.508;10.476;2024-02-28T12:07:06;101688.75;;;12.77;49.56
75585;BME280;64162;53.508;10.476;2024-02-28T12:09:34;101683.69;;;12.30;50.64
75585;BME280;64162;53.508;10.476;2024-02-28T12:12:04;101674.28;;;12.29;49.72
75585;BME280;64162;53.508;10.476;2024-02-28T12:14:35;101689.47;;;12.24;49.68
75585;BME280;64162;53.508;10.476;2024-02-28T12:17:03;101682.13;;;12.65;49.66
75585;BME280;64162;53.508;10.476;2024-02-28T12:19:29;101675.31;;;12.99;49.60
75585;BME280;64162;53.508;10.476;2024-02-28T12:21:56;101684.22;;;12.34;50.20
75585;BME280;64162;53.508;10.476;2024-02-28T12:24:22;101685.13;;;12.15;51.03
75585;BME280;64162;53.508;10.476;2024-02-28T12:26:49;101674.69;;;12.52;50.25
75585;BME280;64162;53.508;10.476;2024-02-28T12:29:16;101668.25;;;12.56;49.76
75585;BME280;64162;53.508;10.476;2024-02-28T12:31:43;101681.50;;;12.53;50.10
75585;BME280;64162;53.508;10.476;2024-02-28T12:34:09;101679.66;;;12.63;50.16
75585;BME280;64162;53.508;10.476;2024-02-28T12:36:36;101680.41;;;12.73;49.81
75585;BME280;64162;53.508;10.476;2024-02-28T12:39:03;101661.94;;;13.29;48.28
75585;BME280;64162;53.508;10.476;2024-02-28T12:41:32;101677.91;;;12.99;48.63
75585;BME280;64162;53.508;10.476;2024-02-28T12:43:59;101672.44;;;12.39;50.41
75585;BME280;64162;53.508;10.476;2024-02-28T12:46:25;101675.28;;;12.19;50.47